Time;durP1;ratioP1;P1;durP2;ratioP2;P2;SDS_P1;SDS_P2;PMS_P1;PMS_P2;Temp;Humidity;BMP_temperature;BMP_pressure;BME280_temperature;BME280_humidity;BME280_pressure;Samples;Min_cycle;Max_cycle;Signal;HPM_P1;HPM_P2
2021/09/25 00:01:14;;;;;;;14.03;4.13;;;;;;;16.58;90.57;101587.94;4961707;28;20367;-75
2021/09/25 00:03:45;;;;;;;13.30;4.43;;;;;;;16.59;90.75;101587.00;5073262;28;20508;-74
2021/09/25 00:06:20;;;;;;;9.75;4.45;;;;;;;16.55;91.02;101590.78;5058391;28;20062;-72
2021/09/25 00:08:49;;;;;;;11.77;4.15;;;;;;;16.55;91.19;101588.97;4942266;27;20567;-72
2021/09/25 00:11:19;;;;;;;13.88;4.65;;;;;;;16.55;91.32;101585.38;5034023;28;20078;-75
2021/09/25 00:13:46;;;;;;;14.23;4.57;;;;;;;16.56;91.21;101582.63;5078540;28;20815;-72
2021/09/25 00:16:14;;;;;;;12.00;4.85;;;;;;;16.56;91.29;101584.44;5006277;28;20047;-72
2021/09/25 00:18:44;;;;;;;9.57;4.25;;;;;;;16.57;91.40;101586.22;4959463;28;20456;-73
2021/09/25 00:21:11;;;;;;;12.90;4.40;;;;;;;16.55;91.43;101580.00;5082705;27;20495;-70
2021/09/25 00:23:40;;;;;;;10.27;4.40;;;;;;;16.51;91.60;101578.41;5074830;28;20043;-68
2021/09/25 00:26:10;;;;;;;11.70;5.10;;;;;;;16.57;91.28;101589.78;4986802;28;20703;-70
2021/09/25 00:28:43;;;;;;;15.95;4.47;;;;;;;16.53;91.20;101581.91;5027993;28;20640;-68
2021/09/25 00:31:14;;;;;;;12.05;4.50;;;;;;;16.55;90.90;101580.91;5078527;28;20047;-70
2021/09/25 00:33:43;;;;;;;12.07;4.53;;;;;;;16.52;91.14;101574.78;5061573;28;20275;-70
2021/09/25 00:36:11;;;;;;;10.02;4.60;;;;;;;16.48;91.24;101578.53;5081248;28;20328;-67
2021/09/25 00:38:39;;;;;;;11.32;4.47;;;;;;;16.51;90.96;101576.56;5074775;28;20103;-68
2021/09/25 00:41:08;;;;;;;13.57;5.00;;;;;;;16.52;90.82;101585.56;5078374;28;20875;-67
2021/09/25 00:43:37;;;;;;;11.77;5.15;;;;;;;16.47;91.32;101580.38;5071739;28;21052;-67
2021/09/25 00:46:06;;;;;;;11.65;5.00;;;;;;;16.43;91.46;101579.63;5074598;28;20511;-67
2021/09/25 00:48:36;;;;;;;11.25;4.85;;;;;;;16.42;91.11;101591.34;5073410;28;20081;-68
2021/09/25 00:51:04;;;;;;;11.85;5.75;;;;;;;16.43;91.31;101587.72;5079224;28;20554;-68
2021/09/25 00:53:32;;;;;;;15.40;5.43;;;;;;;16.39;91.55;101585.22;5075921;28;20054;-67
2021/09/25 00:56:01;;;;;;;14.18;5.55;;;;;;;16.36;91.81;101594.31;5075331;28;20456;-68
2021/09/25 00:58:29;;;;;;;13.57;6.60;;;;;;;16.34;91.63;101585.41;5079809;28;20117;-68
2021/09/25 01:00:58;;;;;;;11.70;5.60;;;;;;;16.32;91.95;101586.44;5078462;28;20429;-68
2021/09/25 01:03:28;;;;;;;13.50;5.15;;;;;;;16.32;92.06;101584.59;5079310;28;20062;-68
2021/09/25 01:05:59;;;;;;;11.35;5.65;;;;;;;16.33;91.99;101582.78;5074706;28;20272;-71
2021/09/25 01:08:29;;;;;;;11.40;5.97;;;;;;;16.31;91.74;101585.56;5070688;28;20043;-69
2021/09/25 01:10:58;;;;;;;12.77;5.63;;;;;;;16.29;92.22;101584.75;5073793;28;21525;-70
2021/09/25 01:13:25;;;;;;;12.57;6.15;;;;;;;16.30;92.48;101589.19;5082263;28;20217;-69
2021/09/25 01:15:53;;;;;;;14.18;6.43;;;;;;;16.27;92.35;101586.63;5076098;28;20181;-68
2021/09/25 01:18:22;;;;;;;13.98;5.47;;;;;;;16.27;92.50;101585.75;5053935;28;20059;-69
2021/09/25 01:20:51;;;;;;;16.98;5.60;;;;;;;16.20;92.87;101588.72;5078292;27;20120;-68
2021/09/25 01:23:20;;;;;;;14.30;5.88;;;;;;;16.21;93.16;101589.59;5081240;28;20227;-68
2021/09/25 01:25:48;;;;;;;13.52;6.03;;;;;;;16.18;92.96;101587.03;5078951;28;20181;-69
2021/09/25 01:28:18;;;;;;;13.85;6.18;;;;;;;16.20;92.78;101590.53;5077052;27;20121;-68
2021/09/25 01:31:12;;;;;;;12.93;6.03;;;;;;;16.15;93.41;101589.88;5079550;28;20082;-70
2021/09/25 01:33:43;;;;;;;15.20;6.45;;;;;;;16.15;93.71;101589.88;5075886;28;20073;-68
2021/09/25 01:36:12;;;;;;;12.05;5.95;;;;;;;16.12;93.71;101588.16;5080456;28;21617;-67
2021/09/25 01:38:42;;;;;;;16.33;6.90;;;;;;;16.12;93.78;101584.63;5078810;28;20515;-69
2021/09/25 01:41:11;;;;;;;15.35;6.18;;;;;;;16.13;94.08;101581.00;5084142;28;20071;-69
2021/09/25 01:43:42;;;;;;;15.82;6.22;;;;;;;16.14;93.85;101578.22;5082196;27;20143;-70
2021/09/25 01:46:10;;;;;;;16.77;6.20;;;;;;;16.12;94.35;101585.47;5075145;27;20863;-70
2021/09/25 01:48:39;;;;;;;21.45;7.95;;;;;;;16.09;94.48;101584.75;5081267;28;20047;-70
2021/09/25 01:51:07;;;;;;;15.73;6.43;;;;;;;16.10;94.54;101584.66;5081600;28;20053;-70
2021/09/25 01:53:35;;;;;;;14.82;6.57;;;;;;;16.06;94.59;101578.56;5080064;28;21410;-70
2021/09/25 01:56:10;;;;;;;14.93;6.68;;;;;;;16.06;94.94;101585.75;5081154;27;20087;-70
2021/09/25 01:58:38;;;;;;;15.45;6.45;;;;;;;16.05;94.88;101576.78;5080054;28;20054;-69
2021/09/25 02:01:06;;;;;;;16.35;7.38;;;;;;;16.09;94.60;101582.94;5085477;28;20442;-67
2021/09/25 02:03:37;;;;;;;18.25;6.72;;;;;;;16.08;94.76;101583.88;5078541;28;20130;-68
2021/09/25 02:06:06;;;;;;;15.05;7.00;;;;;;;16.07;94.71;101579.41;5081521;28;20249;-68
2021/09/25 02:08:34;;;;;;;17.45;8.18;;;;;;;16.02;95.02;101576.03;5076033;28;20056;-68
2021/09/25 02:11:01;;;;;;;19.65;7.22;;;;;;;16.01;94.92;101575.19;5080994;27;20048;-68
2021/09/25 02:13:31;;;;;;;14.98;6.82;;;;;;;16.03;95.09;101585.88;5078075;27;20915;-68
2021/09/25 02:16:00;;;;;;;18.27;7.22;;;;;;;16.01;95.00;101582.41;5080742;28;20109;-73
2021/09/25 02:18:28;;;;;;;15.00;6.53;;;;;;;16.00;95.21;101588.69;5077074;28;20322;-74
2021/09/25 02:20:56;;;;;;;13.18;5.93;;;;;;;15.99;95.40;101581.59;5077919;28;20142;-73
2021/09/25 02:23:24;;;;;;;14.50;6.47;;;;;;;15.97;95.58;101588.81;5077891;28;20624;-73
2021/09/25 02:25:52;;;;;;;15.43;7.07;;;;;;;16.04;95.22;101577.75;5081854;28;20068;-72
2021/09/25 02:28:21;;;;;;;15.52;6.70;;;;;;;15.98;94.97;101575.31;5080663;28;20079;-73
2021/09/25 02:30:50;;;;;;;12.82;6.35;;;;;;;15.91;95.30;101568.44;5081240;28;20208;-73
2021/09/25 02:33:18;;;;;;;13.60;6.30;;;;;;;15.92;95.09;101575.59;5080512;28;20320;-73
2021/09/25 02:35:46;;;;;;;13.85;6.53;;;;;;;15.91;95.34;101570.28;5080044;28;20624;-73
2021/09/25 02:38:14;;;;;;;16.33;7.22;;;;;;;15.88;95.34;101568.56;5078506;28;20174;-73
2021/09/25 02:40:42;;;;;;;17.10;6.78;;;;;;;15.86;95.43;101568.63;5079313;28;20116;-68
2021/09/25 02:43:10;;;;;;;31.58;7.38;;;;;;;15.91;95.36;101567.59;5076751;28;20938;-68
2021/09/25 02:45:39;;;;;;;14.85;6.18;;;;;;;15.90;95.63;101565.81;5077657;28;20452;-69
2021/09/25 02:48:08;;;;;;;14.25;6.22;;;;;;;15.88;95.44;101568.56;5080833;28;20043;-68
2021/09/25 02:50:36;;;;;;;19.02;7.55;;;;;;;15.89;95.74;101564.94;5078208;28;20629;-68
2021/09/25 02:53:04;;;;;;;15.38;5.95;;;;;;;15.87;95.74;101572.22;5081882;28;20097;-68
2021/09/25 02:55:57;;;;;;;12.50;6.55;;;;;;;15.87;95.93;101569.53;5080553;27;20059;-68
2021/09/25 02:58:25;;;;;;;13.35;6.15;;;;;;;15.85;95.74;101569.59;5076410;27;20050;-68
2021/09/25 03:00:53;;;;;;;21.05;6.30;;;;;;;15.86;95.99;101563.25;5079259;28;20047;-68
2021/09/25 03:03:22;;;;;;;15.43;6.88;;;;;;;15.84;96.23;101561.59;5071423;28;20044;-68
2021/09/25 03:05:50;;;;;;;13.68;7.32;;;;;;;15.83;96.52;101566.09;5078428;28;20059;-68
2021/09/25 03:08:18;;;;;;;14.60;6.47;;;;;;;15.82;96.47;101571.53;5083383;28;20071;-68
2021/09/25 03:10:46;;;;;;;19.35;7.75;;;;;;;15.82;96.63;101566.16;5057953;28;20047;-68
2021/09/25 03:13:16;;;;;;;21.95;7.68;;;;;;;15.85;96.52;101568.69;5076143;28;20051;-68
2021/09/25 03:15:44;;;;;;;15.73;7.50;;;;;;;15.81;96.88;101567.09;5073181;28;20039;-68
2021/09/25 03:18:13;;;;;;;16.52;6.93;;;;;;;15.81;96.90;101567.09;5079256;28;20445;-68
2021/09/25 03:21:06;;;;;;;19.02;8.88;;;;;;;15.84;97.51;101570.53;5079958;28;20063;-68
2021/09/25 03:23:58;;;;;;;18.52;8.10;;;;;;;15.87;97.74;101566.84;5081169;28;20098;-68
2021/09/25 03:26:25;;;;;;;15.40;7.70;;;;;;;15.87;97.66;101573.09;5077503;28;20055;-69
2021/09/25 03:28:53;;;;;;;16.73;7.60;;;;;;;15.89;98.02;101574.84;5075513;27;20524;-68
2021/09/25 03:31:22;;;;;;;17.90;7.95;;;;;;;15.89;98.47;101573.03;5076194;27;20127;-68
2021/09/25 03:33:50;;;;;;;18.50;7.88;;;;;;;15.92;98.38;101564.81;5077211;28;20692;-68
2021/09/25 03:36:20;;;;;;;17.83;7.32;;;;;;;15.91;98.43;101563.06;5078314;27;20570;-68
2021/09/25 03:38:47;;;;;;;18.48;9.32;;;;;;;15.90;98.60;101572.06;5081564;28;20048;-68
2021/09/25 03:41:15;;;;;;;19.05;7.75;;;;;;;15.93;98.06;101571.06;5075343;28;20051;-68
2021/09/25 03:43:44;;;;;;;18.65;8.38;;;;;;;15.92;98.19;101567.53;5078087;27;20410;-73
2021/09/25 03:46:12;;;;;;;19.60;9.13;;;;;;;15.92;98.42;101563.94;5077170;27;20048;-73
2021/09/25 03:49:04;;;;;;;17.10;8.13;;;;;;;15.91;98.47;101567.59;5080118;28;20215;-73
2021/09/25 03:51:33;;;;;;;19.63;9.07;;;;;;;15.91;98.50;101555.00;5080341;28;21521;-73
2021/09/25 03:54:01;;;;;;;15.20;7.97;;;;;;;15.93;98.27;101563.00;5079273;28;20055;-73
2021/09/25 03:56:29;;;;;;;18.75;9.65;;;;;;;15.87;98.25;101567.72;5077329;28;20890;-73
2021/09/25 03:58:57;;;;;;;21.05;9.15;;;;;;;15.88;98.42;101560.50;5078148;28;20466;-73
2021/09/25 04:01:25;;;;;;;21.23;9.50;;;;;;;15.85;98.96;101555.25;5078904;28;20054;-73
2021/09/25 04:03:55;;;;;;;21.10;10.10;;;;;;;15.83;98.91;101552.66;5077028;28;20047;-72
2021/09/25 04:06:25;;;;;;;24.42;10.50;;;;;;;15.80;98.97;101558.16;5086248;28;20031;-73
2021/09/25 04:08:55;;;;;;;23.77;9.93;;;;;;;15.83;98.83;101566.09;5075647;28;22112;-74
2021/09/25 04:11:23;;;;;;;22.55;10.07;;;;;;;15.84;98.83;101567.84;5080627;28;20054;-68
2021/09/25 04:13:51;;;;;;;24.65;10.73;;;;;;;15.83;99.41;101566.09;5075489;27;20133;-68
2021/09/25 04:16:18;;;;;;;21.77;10.30;;;;;;;15.83;99.72;101560.72;5075265;27;20338;-68
2021/09/25 04:18:46;;;;;;;24.90;10.77;;;;;;;15.84;99.47;101572.34;5078146;28;20578;-68
2021/09/25 04:21:16;;;;;;;22.27;10.68;;;;;;;15.86;99.54;101571.31;5082711;28;20039;-67
2021/09/25 04:23:45;;;;;;;28.08;11.75;;;;;;;15.86;99.60;101571.31;5075557;27;20051;-68
2021/09/25 04:26:18;;;;;;;26.88;11.07;;;;;;;15.86;100.00;101573.16;5074685;28;20519;-69
2021/09/25 04:28:46;;;;;;;26.50;11.00;;;;;;;15.87;100.00;101561.47;5077336;28;20164;-69
2021/09/25 04:31:14;;;;;;;25.63;11.82;;;;;;;15.86;100.00;101567.78;5075250;28;20051;-68
2021/09/25 04:33:42;;;;;;;22.60;10.45;;;;;;;15.89;99.97;101564.94;5075834;28;20058;-69
2021/09/25 04:36:10;;;;;;;24.67;11.38;;;;;;;15.91;100.00;101567.59;5079203;28;20051;-69
2021/09/25 04:38:38;;;;;;;27.00;11.85;;;;;;;15.90;100.00;101561.31;5077928;28;20052;-69
2021/09/25 04:41:06;;;;;;;26.05;10.07;;;;;;;15.90;100.00;101555.06;5079234;28;20316;-74
2021/09/25 04:43:35;;;;;;;29.10;13.25;;;;;;;15.94;100.00;101565.63;5076925;28;20051;-74
2021/09/25 04:46:03;;;;;;;28.58;11.32;;;;;;;15.96;100.00;101568.25;5075436;28;20050;-69
2021/09/25 04:48:31;;;;;;;20.85;11.90;;;;;;;15.94;100.00;101562.06;5074278;28;20157;-69
2021/09/25 04:50:59;;;;;;;25.73;11.35;;;;;;;15.96;100.00;101558.34;5076123;28;20142;-69
2021/09/25 04:53:30;;;;;;;25.35;11.95;;;;;;;15.97;100.00;101562.81;5079606;28;20177;-69
2021/09/25 04:55:59;;;;;;;28.40;11.95;;;;;;;15.99;100.00;101565.44;5076050;28;20095;-67
2021/09/25 04:58:29;;;;;;;23.08;11.20;;;;;;;16.00;100.00;101557.28;5080464;28;20332;-67
2021/09/25 05:01:01;;;;;;;28.05;12.32;;;;;;;16.03;100.00;101559.84;5074414;28;20043;-69
2021/09/25 05:03:32;;;;;;;26.65;13.07;;;;;;;16.03;100.00;101559.84;5076897;28;20048;-68
2021/09/25 05:06:01;;;;;;;33.63;13.50;;;;;;;16.04;100.00;101564.28;5055978;28;20047;-71
2021/09/25 05:08:29;;;;;;;28.98;11.50;;;;;;;16.09;100.00;101557.81;5078985;28;20437;-70
2021/09/25 05:10:59;;;;;;;28.88;12.65;;;;;;;16.05;100.00;101563.31;5075431;28;20052;-70
2021/09/25 05:13:30;;;;;;;31.60;14.15;;;;;;;16.06;100.00;101565.09;5079426;28;20208;-68
2021/09/25 05:15:59;;;;;;;25.67;11.50;;;;;;;16.09;100.00;101568.59;5074746;28;20325;-68
2021/09/25 05:18:30;;;;;;;28.55;11.77;;;;;;;16.10;100.00;101563.13;5079602;28;20637;-69
2021/09/25 05:20:59;;;;;;;32.95;12.13;;;;;;;16.11;100.00;101567.59;5059917;28;20209;-69
2021/09/25 05:23:29;;;;;;;30.23;12.43;;;;;;;16.10;100.00;101564.97;5077451;28;20047;-69
2021/09/25 05:25:58;;;;;;;28.20;12.13;;;;;;;16.09;100.00;101564.09;5073357;28;20408;-68
2021/09/25 05:28:27;;;;;;;29.75;13.23;;;;;;;16.08;100.00;101564.16;5085731;28;20167;-70
2021/09/25 05:30:56;;;;;;;26.75;12.15;;;;;;;16.04;100.00;101571.50;5074293;28;20513;-69
2021/09/25 05:33:26;;;;;;;27.70;11.43;;;;;;;16.08;100.00;101565.03;5076261;28;20407;-69
2021/09/25 05:35:54;;;;;;;31.98;12.32;;;;;;;16.08;100.00;101570.41;5074789;28;20058;-70
2021/09/25 05:38:24;;;;;;;33.08;11.93;;;;;;;16.09;100.00;101566.78;5076977;28;20050;-71
2021/09/25 05:40:55;;;;;;;28.50;12.88;;;;;;;16.03;100.00;101573.28;5072911;28;20051;-70
2021/09/25 05:43:23;;;;;;;29.05;12.02;;;;;;;16.05;100.00;101567.84;5066935;28;20048;-70
2021/09/25 05:45:51;;;;;;;32.20;12.95;;;;;;;16.06;100.00;101570.47;5077899;28;20046;-69
2021/09/25 05:48:19;;;;;;;30.60;13.00;;;;;;;16.08;100.00;101564.16;5078035;28;20637;-70
2021/09/25 05:51:12;;;;;;;28.80;12.30;;;;;;;16.06;100.00;101575.00;5074412;28;20051;-69
2021/09/25 05:53:40;;;;;;;30.95;12.95;;;;;;;16.09;100.00;101571.28;5076811;28;20480;-69
2021/09/25 05:56:11;;;;;;;30.75;13.48;;;;;;;16.08;100.00;101577.63;5083268;28;20047;-70
2021/09/25 05:58:39;;;;;;;29.23;12.90;;;;;;;16.06;100.00;101565.09;5081984;28;20105;-69
2021/09/25 06:01:07;;;;;;;29.58;12.65;;;;;;;16.06;100.00;101570.47;5083774;28;20048;-69
2021/09/25 06:03:36;;;;;;;36.00;14.15;;;;;;;16.04;100.00;101572.38;5081045;27;20101;-69
2021/09/25 06:06:08;;;;;;;30.83;13.38;;;;;;;16.04;100.00;101574.19;5081989;28;20047;-68
2021/09/25 06:09:01;;;;;;;28.67;12.25;;;;;;;16.08;100.00;101577.63;5082314;27;20122;-70
2021/09/25 06:11:30;;;;;;;28.92;13.00;;;;;;;16.09;100.00;101582.03;5085550;28;20499;-69
2021/09/25 06:14:00;;;;;;;32.53;13.27;;;;;;;16.08;100.00;101583.00;5083969;28;20207;-73
2021/09/25 06:16:28;;;;;;;30.48;13.50;;;;;;;16.11;100.00;101577.50;5082909;27;20059;-74
2021/09/25 06:18:59;;;;;;;27.45;12.27;;;;;;;16.13;100.00;101571.09;5079714;28;20514;-73
2021/09/25 06:21:28;;;;;;;28.70;12.40;;;;;;;16.11;100.00;101572.97;5079644;28;20417;-74
2021/09/25 06:23:56;;;;;;;34.90;13.27;;;;;;;16.18;100.00;101576.28;5082398;27;20272;-74
2021/09/25 06:26:26;;;;;;;33.45;13.57;;;;;;;16.17;100.00;101582.59;5082318;28;20052;-73
2021/09/25 06:28:55;;;;;;;29.75;13.25;;;;;;;16.18;100.00;101587.03;5081359;28;20139;-73
2021/09/25 06:31:22;;;;;;;33.08;12.75;;;;;;;16.19;100.00;101591.47;5079237;28;20845;-74
2021/09/25 06:33:50;;;;;;;34.35;13.48;;;;;;;16.24;100.00;101586.75;5082865;28;20050;-73
2021/09/25 06:36:18;;;;;;;31.35;13.25;;;;;;;16.24;100.00;101595.72;5080517;28;20508;-74
2021/09/25 06:38:46;;;;;;;34.20;14.63;;;;;;;16.23;100.00;101585.91;5080110;28;20048;-74
2021/09/25 06:41:14;;;;;;;29.13;12.82;;;;;;;16.28;100.00;101591.09;5078123;28;21144;-73
2021/09/25 06:43:43;;;;;;;42.75;13.52;;;;;;;16.30;100.00;101588.31;5078216;28;20491;-74
2021/09/25 06:46:12;;;;;;;31.08;13.20;;;;;;;16.35;100.00;101595.25;5083192;27;20590;-74
2021/09/25 06:48:41;;;;;;;26.08;12.18;;;;;;;16.42;100.00;101595.84;5079056;28;20286;-74
2021/09/25 06:51:08;;;;;;;34.90;14.30;;;;;;;16.38;100.00;101588.88;5075693;28;20464;-74
2021/09/25 06:53:36;;;;;;;33.55;13.65;;;;;;;16.41;100.00;101594.09;5076520;28;20582;-75
2021/09/25 06:56:05;;;;;;;24.48;12.65;;;;;;;16.45;100.00;101590.34;5077426;28;20043;-75
2021/09/25 06:58:34;;;;;;;33.13;13.10;;;;;;;16.48;100.00;101598.28;5076727;28;20047;-73
2021/09/25 07:01:03;;;;;;;33.08;13.75;;;;;;;16.49;100.00;101591.06;5079338;28;20568;-74
2021/09/25 07:03:32;;;;;;;34.30;13.63;;;;;;;16.48;100.00;101600.97;5083229;28;20075;-73
2021/09/25 07:06:00;;;;;;;30.80;13.10;;;;;;;16.47;100.00;101591.13;5080022;28;20052;-74
2021/09/25 07:08:29;;;;;;;30.23;13.77;;;;;;;16.46;100.00;101594.75;5085481;28;20541;-74
2021/09/25 07:10:58;;;;;;;30.38;13.40;;;;;;;16.51;100.00;101597.25;5081250;28;20502;-74
2021/09/25 07:13:25;;;;;;;36.67;15.10;;;;;;;16.48;100.00;101592.00;5082984;28;20059;-74
2021/09/25 07:15:53;;;;;;;30.95;14.30;;;;;;;16.63;100.00;101596.69;5083508;27;20059;-74
2021/09/25 07:18:23;;;;;;;32.50;13.57;;;;;;;16.74;100.00;101583.63;5081173;27;20693;-74
2021/09/25 07:20:51;;;;;;;35.45;14.55;;;;;;;16.85;100.00;101593.06;5079534;28;20071;-74
2021/09/25 07:23:19;;;;;;;29.98;13.57;;;;;;;16.91;100.00;101600.88;5081407;28;20288;-74
2021/09/25 07:25:47;;;;;;;37.25;14.80;;;;;;;16.93;99.67;101601.66;5080660;28;20047;-74
2021/09/25 07:28:15;;;;;;;34.13;15.15;;;;;;;16.97;99.49;101598.75;5085399;28;20138;-74
2021/09/25 07:30:44;;;;;;;35.63;13.85;;;;;;;17.02;99.38;101606.63;5080163;28;20134;-74
2021/09/25 07:33:12;;;;;;;34.97;14.52;;;;;;;16.92;99.87;101613.38;5078869;28;20054;-69
2021/09/25 07:35:43;;;;;;;32.47;14.60;;;;;;;16.95;99.78;101610.56;5079823;28;20524;-69
2021/09/25 07:38:11;;;;;;;37.17;14.90;;;;;;;17.06;99.73;101607.34;5078980;27;20324;-69
2021/09/25 07:41:04;;;;;;;36.63;15.82;;;;;;;16.99;100.00;101612.16;5078434;28;20648;-69
2021/09/25 07:43:56;;;;;;;40.83;14.82;;;;;;;17.02;100.00;101614.69;5079561;27;20673;-70
2021/09/25 07:46:25;;;;;;;38.67;14.82;;;;;;;17.09;99.92;101617.97;5086958;27;20503;-71
2021/09/25 07:48:53;;;;;;;46.30;18.77;;;;;;;16.96;100.00;101629.34;5073813;28;20044;-70
2021/09/25 07:51:22;;;;;;;42.58;17.60;;;;;;;17.13;100.00;101622.31;5081485;28;20083;-70
2021/09/25 07:53:50;;;;;;;49.50;19.83;;;;;;;17.33;99.74;101634.81;5073565;27;20047;-70
2021/09/25 07:56:18;;;;;;;48.28;20.98;;;;;;;17.40;99.09;101630.00;5081118;27;20058;-73
2021/09/25 07:58:46;;;;;;;45.40;20.42;;;;;;;17.58;97.53;101628.25;5077202;28;20423;-73
2021/09/25 08:01:14;;;;;;;55.25;22.08;;;;;;;17.68;97.42;101643.91;5081681;28;20565;-73
2021/09/25 08:03:43;;;;;;;46.80;21.05;;;;;;;17.76;97.18;101637.25;5073103;28;20101;-73
2021/09/25 08:06:12;;;;;;;47.42;19.83;;;;;;;17.67;97.05;101644.88;5083318;28;20446;-73
2021/09/25 08:08:41;;;;;;;51.28;23.38;;;;;;;17.83;96.29;101649.50;5072918;28;20527;-72
2021/09/25 08:11:09;;;;;;;48.95;22.50;;;;;;;17.38;97.20;101657.06;5083274;27;20059;-73
2021/09/25 08:13:37;;;;;;;45.63;22.80;;;;;;;17.59;96.63;101655.16;5083194;28;20044;-74
2021/09/25 08:16:06;;;;;;;45.55;20.98;;;;;;;17.72;96.79;101668.91;5076293;28;20050;-72
2021/09/25 08:18:34;;;;;;;46.80;20.67;;;;;;;17.65;96.64;101667.47;5077877;28;20044;-70
2021/09/25 08:21:02;;;;;;;49.10;22.65;;;;;;;17.63;96.38;101670.25;5074309;28;20057;-70
2021/09/25 08:23:30;;;;;;;46.10;22.33;;;;;;;17.69;96.26;101675.34;5082283;28;20127;-69
2021/09/25 08:26:00;;;;;;;54.13;23.15;;;;;;;17.72;95.81;101680.59;5076684;28;20047;-70
2021/09/25 08:28:29;;;;;;;47.85;22.00;;;;;;;17.95;95.57;101672.34;5080653;27;20083;-70
2021/09/25 08:30:58;;;;;;;43.35;20.55;;;;;;;17.90;95.31;101681.53;5081671;28;20465;-70
2021/09/25 08:33:26;;;;;;;48.38;18.98;;;;;;;17.97;94.72;101689.34;5078522;28;20778;-69
2021/09/25 08:35:54;;;;;;;34.08;17.50;;;;;;;18.15;94.94;101680.34;5077855;28;20467;-72
2021/09/25 08:38:23;;;;;;;32.78;15.95;;;;;;;18.24;93.63;101695.19;5080204;28;20397;-72
2021/09/25 08:40:50;;;;;;;41.45;18.73;;;;;;;18.20;93.46;101694.47;5071893;28;20058;-73
2021/09/25 08:43:24;;;;;;;35.67;17.33;;;;;;;18.61;92.18;101694.16;5078863;28;20688;-73
2021/09/25 08:45:56;;;;;;;40.80;20.95;;;;;;;18.65;91.26;101702.97;5075104;28;20078;-71
2021/09/25 08:48:25;;;;;;;40.60;20.13;;;;;;;18.63;91.61;101699.50;5083597;28;21150;-74
2021/09/25 08:50:56;;;;;;;39.80;20.80;;;;;;;18.71;90.74;101694.56;5073874;28;20318;-73
2021/09/25 08:53:24;;;;;;;42.80;22.92;;;;;;;19.07;89.42;101688.16;5075322;28;20339;-72
2021/09/25 08:55:53;;;;;;;44.58;22.08;;;;;;;19.58;88.64;101686.22;5075609;28;20051;-72
2021/09/25 08:58:22;;;;;;;39.83;21.80;;;;;;;19.67;87.40;101681.25;5078420;28;20047;-72
2021/09/25 09:00:51;;;;;;;44.88;23.73;;;;;;;19.60;86.18;101686.13;5084513;28;20376;-73
2021/09/25 09:03:29;;;;;;;44.83;22.10;;;;;;;19.09;87.73;101696.19;5074054;28;20124;-74
2021/09/25 09:06:14;;;;;;;49.88;25.17;;;;;;;19.59;87.12;101692.50;5082461;28;20564;-73
2021/09/25 09:08:45;;;;;;;42.25;21.65;;;;;;;19.56;85.39;101689.97;5077615;28;20275;-73
2021/09/25 09:11:16;;;;;;;44.63;20.77;;;;;;;19.45;85.99;101689.72;5080503;28;20143;-74
2021/09/25 09:13:51;;;;;;;50.63;24.15;;;;;;;19.58;86.11;101688.94;5079771;28;20047;-75
2021/09/25 09:16:19;;;;;;;49.63;24.27;;;;;;;19.62;85.57;101697.75;5077319;28;20555;-75
2021/09/25 09:18:49;;;;;;;49.58;25.75;;;;;;;19.72;84.50;101698.97;5082826;28;20039;-75
2021/09/25 09:21:20;;;;;;;47.17;25.20;;;;;;;19.37;85.62;101709.06;5076068;28;20128;-75
2021/09/25 09:23:51;;;;;;;56.35;26.88;;;;;;;19.27;86.70;101705.13;5081532;28;20511;-75
2021/09/25 09:26:22;;;;;;;49.67;26.15;;;;;;;19.38;86.21;101700.88;5076280;28;20082;-69
2021/09/25 09:28:54;;;;;;;48.83;26.13;;;;;;;19.49;85.78;101685.88;5079279;28;20395;-69
2021/09/25 09:31:23;;;;;;;46.53;25.10;;;;;;;19.85;85.07;101692.88;5074655;28;20143;-69
2021/09/25 09:33:56;;;;;;;56.80;29.67;;;;;;;20.44;83.50;101695.75;5077952;28;20051;-69
2021/09/25 09:36:32;;;;;;;52.30;29.40;;;;;;;20.45;81.81;101701.06;5084816;28;20542;-69
2021/09/25 09:39:08;;;;;;;49.15;27.92;;;;;;;20.02;82.28;101695.47;5082096;28;20054;-69
2021/09/25 09:41:38;;;;;;;51.15;29.45;;;;;;;19.72;84.10;101698.97;5083996;28;20052;-69
2021/09/25 09:44:10;;;;;;;54.30;29.45;;;;;;;19.71;84.51;101699.91;5081023;28;20079;-69
2021/09/25 09:46:42;;;;;;;57.15;29.88;;;;;;;19.86;84.25;101698.22;5082921;28;20048;-69
2021/09/25 09:49:15;;;;;;;52.30;28.13;;;;;;;19.86;83.75;101705.47;5082133;28;20382;-69
2021/09/25 09:51:44;;;;;;;;;;;;;;;19.90;83.29;101698.91;5083607;28;20055;-69
2021/09/25 09:54:22;;;;;;;66.65;30.10;;;;;;;19.99;83.82;101692.06;5081752;28;19943;-69
2021/09/25 09:56:52;;;;;;;65.18;33.13;;;;;;;20.19;83.11;101699.91;5084204;28;20714;-69
2021/09/25 09:59:22;;;;;;;59.65;32.35;;;;;;;20.06;82.95;101702.47;5087222;28;20055;-69
2021/09/25 10:01:50;;;;;;;59.03;29.92;;;;;;;20.24;82.44;101705.91;5079181;28;20052;-68
2021/09/25 10:04:19;;;;;;;60.85;30.98;;;;;;;20.15;82.42;101704.63;5086374;28;20772;-69
2021/09/25 10:06:50;;;;;;;63.95;31.83;;;;;;;20.13;82.18;101719.25;5081078;27;20048;-69
2021/09/25 10:09:20;;;;;;;62.88;32.40;;;;;;;20.16;82.10;101710.94;5083941;27;20236;-69
2021/09/25 10:11:50;;;;;;;61.95;33.00;;;;;;;20.22;81.51;101715.13;5078021;28;20663;-69
2021/09/25 10:14:20;;;;;;;59.45;31.20;;;;;;;20.43;81.53;101705.72;5088910;28;20047;-69
2021/09/25 10:16:50;;;;;;;53.97;30.10;;;;;;;20.68;80.18;101707.84;5082401;28;21367;-69
2021/09/25 10:19:21;;;;;;;57.80;30.05;;;;;;;20.88;79.25;101698.47;5081877;27;20454;-69
2021/09/25 10:21:53;;;;;;;57.80;28.35;;;;;;;20.82;79.17;101696.16;5081555;28;20181;-69
2021/09/25 10:24:25;;;;;;;57.30;30.08;;;;;;;20.50;79.45;101698.97;5082100;27;20058;-74
2021/09/25 10:26:56;;;;;;;58.72;31.70;;;;;;;20.64;78.83;101695.44;5084670;27;21888;-75
2021/09/25 10:29:26;;;;;;;57.33;31.67;;;;;;;21.29;77.73;101687.84;5083755;28;20051;-74
2021/09/25 10:32:19;;;;;;;59.92;30.70;;;;;;;21.55;76.77;101691.59;5084538;28;20287;-73
2021/09/25 10:35:09;;;;;;;60.08;30.77;;;;;;;21.35;76.78;101692.84;5076251;28;20945;-73
2021/09/25 10:37:39;;;;;;;48.22;28.15;;;;;;;21.70;76.15;101692.47;5078738;28;20048;-74
2021/09/25 10:40:29;;;;;;;58.20;28.88;;;;;;;21.85;75.36;101693.28;5078955;28;20729;-74
2021/09/25 10:43:00;;;;;;;50.10;28.73;;;;;;;21.56;75.08;101698.78;5079436;27;20097;-73
2021/09/25 10:45:30;;;;;;;57.20;29.98;;;;;;;20.99;77.29;101697.78;5083230;28;20533;-68
2021/09/25 10:48:11;;;;;;;56.65;29.70;;;;;;;21.11;76.85;101698.00;5088444;27;20097;-68
2021/09/25 10:50:42;;;;;;;52.33;26.98;;;;;;;21.49;76.21;101692.88;5078516;28;20125;-68
2021/09/25 10:53:13;;;;;;;56.45;29.13;;;;;;;21.45;75.56;101702.16;5080655;28;20071;-68
2021/09/25 10:56:07;;;;;;;58.95;28.33;;;;;;;21.05;76.35;101689.28;5085452;27;20192;-68
2021/09/25 10:58:37;;;;;;;56.55;28.98;;;;;;;21.49;76.20;101689.28;5085083;28;20150;-70
2021/09/25 11:01:10;;;;;;;55.55;26.90;;;;;;;21.72;74.20;101691.38;5081839;28;20111;-68
2021/09/25 11:04:06;;;;;;;57.70;26.23;;;;;;;21.85;74.45;101688.72;5081038;28;20410;-68
2021/09/25 11:06:56;;;;;;;55.88;29.38;;;;;;;21.59;74.65;101683.16;5080202;28;20048;-70
2021/09/25 11:09:28;;;;;;;52.00;27.17;;;;;;;21.08;75.99;101686.38;5083120;28;20426;-69
2021/09/25 11:12:02;;;;;;;48.88;28.05;;;;;;;20.91;76.57;101681.16;5079105;28;20135;-70
2021/09/25 11:14:33;;;;;;;48.17;25.33;;;;;;;21.36;75.58;101689.19;5079465;28;20139;-68
2021/09/25 11:17:04;;;;;;;51.25;25.73;;;;;;;21.42;75.20;101681.50;5084819;27;20050;-69
2021/09/25 11:19:46;;;;;;;45.88;23.88;;;;;;;21.38;75.96;101693.53;5080245;28;20511;-69
2021/09/25 11:22:22;;;;;;;52.35;27.85;;;;;;;21.59;75.15;101690.41;5080051;28;20101;-70
2021/09/25 11:24:52;;;;;;;46.55;23.27;;;;;;;21.69;73.80;101685.28;5079389;28;20051;-69